This is the latest recevied weather packets stored in our database for station/object DL7KAW-10. If no packets are shown the sender has not sent any weather packets the latest 10 day(s).
| Time | Temp. | Humidity | Pressure | Rain* | Wind** | Luminosity | Snow |
|---|---|---|---|---|---|---|---|
| 1777541132 | 17.22° C | 40% | 1032.2 hPa | - | - | - | - |
| 1777540232 | 18.89° C | 40% | 1032.3 hPa | - | - | - | - |
| 1777539332 | 26.67° C | 28% | 1032.1 hPa | - | - | - | - |
| 1777538432 | 21.11° C | 36% | 1032.5 hPa | - | - | - | - |
| 1777537532 | 18.33° C | 47% | 1032.6 hPa | - | - | - | - |
| 1777536632 | 14.44° C | 58% | 1032.8 hPa | - | - | - | - |
| 1777535732 | 13.89° C | 58% | 1032.8 hPa | - | - | - | - |
| 1777534832 | 13.33° C | 59% | 1032.9 hPa | - | - | - | - |
| 1777533932 | 13.33° C | 59% | 1032.9 hPa | - | - | - | - |
| 1777533031 | 12.78° C | 60% | 1033 hPa | - | - | - | - |
| 1777532131 | 12.78° C | 61% | 1033.1 hPa | - | - | - | - |
| 1777531231 | 12.22° C | 62% | 1033.2 hPa | - | - | - | - |
| 1777530331 | 12.22° C | 61% | 1033.2 hPa | - | - | - | - |
| 1777529431 | 12.22° C | 62% | 1033.1 hPa | - | - | - | - |
| 1777528531 | 12.22° C | 62% | 1033 hPa | - | - | - | - |
| 1777527631 | 12.22° C | 62% | 1033.2 hPa | - | - | - | - |
| 1777526731 | 12.22° C | 62% | 1033.1 hPa | - | - | - | - |
| 1777525831 | 12.22° C | 62% | 1032.8 hPa | - | - | - | - |
| 1777524930 | 12.22° C | 62% | 1032.9 hPa | - | - | - | - |
| 1777524030 | 12.22° C | 62% | 1032.8 hPa | - | - | - | - |
| 1777523130 | 12.22° C | 62% | 1032.6 hPa | - | - | - | - |
| 1777522230 | 12.22° C | 62% | 1032.7 hPa | - | - | - | - |
| 1777521330 | 12.22° C | 62% | 1032.8 hPa | - | - | - | - |
| 1777520430 | 12.22° C | 62% | 1032.8 hPa | - | - | - | - |
| 1777519530 | 12.22° C | 61% | 1032.7 hPa | - | - | - | - |
* Rain since midnight (hover to see other rain measurements)
** Current wind speed in m/s (hover to see current wind gust speed)